sensor_id;sensor_type;location;lat;lon;timestamp;P1;durP1;ratioP1;P2;durP2;ratioP2
53519;SDS011;39397;53.204;5.778;2024-03-08T00:00:15;26.15;;;16.60;;
53519;SDS011;39397;53.204;5.778;2024-03-08T00:02:43;27.77;;;17.20;;
53519;SDS011;39397;53.204;5.778;2024-03-08T00:05:10;29.38;;;17.60;;
53519;SDS011;39397;53.204;5.778;2024-03-08T00:07:36;26.92;;;17.38;;
53519;SDS011;39397;53.204;5.778;2024-03-08T00:10:08;31.23;;;17.75;;
53519;SDS011;39397;53.204;5.778;2024-03-08T00:12:39;35.90;;;17.20;;
53519;SDS011;39397;53.204;5.778;2024-03-08T00:15:12;29.05;;;17.00;;
53519;SDS011;39397;53.204;5.778;2024-03-08T00:17:42;30.60;;;17.87;;
53519;SDS011;39397;53.204;5.778;2024-03-08T00:20:09;28.30;;;17.33;;
53519;SDS011;39397;53.204;5.778;2024-03-08T00:22:35;29.35;;;17.23;;
53519;SDS011;39397;53.204;5.778;2024-03-08T00:25:02;30.48;;;17.88;;
53519;SDS011;39397;53.204;5.778;2024-03-08T00:27:28;27.92;;;16.65;;
53519;SDS011;39397;53.204;5.778;2024-03-08T00:29:55;35.60;;;17.65;;
53519;SDS011;39397;53.204;5.778;2024-03-08T00:32:22;28.20;;;17.08;;
53519;SDS011;39397;53.204;5.778;2024-03-08T00:34:51;27.90;;;17.73;;
53519;SDS011;39397;53.204;5.778;2024-03-08T00:37:23;32.58;;;18.20;;
53519;SDS011;39397;53.204;5.778;2024-03-08T00:39:49;31.55;;;18.75;;
53519;SDS011;39397;53.204;5.778;2024-03-08T00:42:16;29.60;;;17.70;;
53519;SDS011;39397;53.204;5.778;2024-03-08T00:44:43;31.13;;;18.30;;
53519;SDS011;39397;53.204;5.778;2024-03-08T00:47:08;32.38;;;18.95;;
53519;SDS011;39397;53.204;5.778;2024-03-08T00:49:34;29.48;;;18.80;;
53519;SDS011;39397;53.204;5.778;2024-03-08T00:52:03;29.52;;;19.10;;
53519;SDS011;39397;53.204;5.778;2024-03-08T00:54:31;30.55;;;18.95;;
53519;SDS011;39397;53.204;5.778;2024-03-08T00:56:57;29.23;;;18.67;;
53519;SDS011;39397;53.204;5.778;2024-03-08T00:59:23;30.83;;;18.23;;
53519;SDS011;39397;53.204;5.778;2024-03-08T01:01:49;30.98;;;18.73;;
53519;SDS011;39397;53.204;5.778;2024-03-08T01:04:14;31.55;;;18.92;;
53519;SDS011;39397;53.204;5.778;2024-03-08T01:06:40;29.00;;;18.48;;
53519;SDS011;39397;53.204;5.778;2024-03-08T01:09:07;29.30;;;18.58;;
53519;SDS011;39397;53.204;5.778;2024-03-08T01:11:34;31.65;;;18.40;;
53519;SDS011;39397;53.204;5.778;2024-03-08T01:14:00;31.85;;;18.85;;
53519;SDS011;39397;53.204;5.778;2024-03-08T01:16:26;32.85;;;21.02;;
53519;SDS011;39397;53.204;5.778;2024-03-08T01:18:52;33.90;;;19.75;;
53519;SDS011;39397;53.204;5.778;2024-03-08T01:21:17;35.40;;;20.60;;
53519;SDS011;39397;53.204;5.778;2024-03-08T01:23:43;36.72;;;20.77;;
53519;SDS011;39397;53.204;5.778;2024-03-08T01:26:09;33.25;;;21.02;;
53519;SDS011;39397;53.204;5.778;2024-03-08T01:28:35;33.90;;;19.50;;
53519;SDS011;39397;53.204;5.778;2024-03-08T01:31:01;32.95;;;20.48;;
53519;SDS011;39397;53.204;5.778;2024-03-08T01:33:29;36.00;;;22.77;;
53519;SDS011;39397;53.204;5.778;2024-03-08T01:35:55;34.40;;;20.48;;
53519;SDS011;39397;53.204;5.778;2024-03-08T01:38:22;37.25;;;21.05;;
53519;SDS011;39397;53.204;5.778;2024-03-08T01:40:48;34.70;;;20.90;;
53519;SDS011;39397;53.204;5.778;2024-03-08T01:45:48;37.63;;;21.38;;
53519;SDS011;39397;53.204;5.778;2024-03-08T01:48:14;37.45;;;24.02;;
53519;SDS011;39397;53.204;5.778;2024-03-08T01:50:41;38.47;;;22.23;;
53519;SDS011;39397;53.204;5.778;2024-03-08T01:53:08;37.33;;;21.27;;
53519;SDS011;39397;53.204;5.778;2024-03-08T01:55:35;39.10;;;23.17;;
53519;SDS011;39397;53.204;5.778;2024-03-08T01:58:03;42.42;;;23.02;;
53519;SDS011;39397;53.204;5.778;2024-03-08T02:00:30;37.78;;;22.00;;
53519;SDS011;39397;53.204;5.778;2024-03-08T02:02:57;37.75;;;21.45;;
53519;SDS011;39397;53.204;5.778;2024-03-08T02:05:29;40.22;;;22.33;;
53519;SDS011;39397;53.204;5.778;2024-03-08T02:07:55;34.47;;;20.63;;
53519;SDS011;39397;53.204;5.778;2024-03-08T02:10:22;37.33;;;21.90;;
53519;SDS011;39397;53.204;5.778;2024-03-08T02:12:48;39.70;;;23.23;;
53519;SDS011;39397;53.204;5.778;2024-03-08T02:15:14;38.83;;;22.30;;
53519;SDS011;39397;53.204;5.778;2024-03-08T02:17:40;42.63;;;22.60;;
53519;SDS011;39397;53.204;5.778;2024-03-08T02:20:06;38.78;;;23.42;;
53519;SDS011;39397;53.204;5.778;2024-03-08T02:22:34;40.33;;;24.02;;
53519;SDS011;39397;53.204;5.778;2024-03-08T02:25:01;40.60;;;22.80;;
53519;SDS011;39397;53.204;5.778;2024-03-08T02:27:28;39.05;;;22.42;;
53519;SDS011;39397;53.204;5.778;2024-03-08T02:29:57;38.35;;;22.60;;
53519;SDS011;39397;53.204;5.778;2024-03-08T02:32:23;40.78;;;22.90;;
53519;SDS011;39397;53.204;5.778;2024-03-08T02:34:56;40.58;;;23.25;;
53519;SDS011;39397;53.204;5.778;2024-03-08T02:37:25;42.85;;;22.83;;
53519;SDS011;39397;53.204;5.778;2024-03-08T02:39:51;42.90;;;22.98;;
53519;SDS011;39397;53.204;5.778;2024-03-08T02:42:16;41.42;;;24.35;;
53519;SDS011;39397;53.204;5.778;2024-03-08T02:44:43;43.55;;;24.13;;
53519;SDS011;39397;53.204;5.778;2024-03-08T02:47:12;41.53;;;25.08;;
53519;SDS011;39397;53.204;5.778;2024-03-08T02:49:37;41.55;;;23.63;;
53519;SDS011;39397;53.204;5.778;2024-03-08T02:52:04;41.78;;;24.48;;
53519;SDS011;39397;53.204;5.778;2024-03-08T02:54:30;39.88;;;23.63;;
53519;SDS011;39397;53.204;5.778;2024-03-08T02:56:56;40.63;;;23.77;;
53519;SDS011;39397;53.204;5.778;2024-03-08T02:59:21;42.85;;;24.00;;
53519;SDS011;39397;53.204;5.778;2024-03-08T03:01:48;41.63;;;24.88;;
53519;SDS011;39397;53.204;5.778;2024-03-08T03:04:14;43.65;;;24.55;;
53519;SDS011;39397;53.204;5.778;2024-03-08T03:06:40;36.65;;;22.58;;
53519;SDS011;39397;53.204;5.778;2024-03-08T03:09:06;40.80;;;22.35;;
53519;SDS011;39397;53.204;5.778;2024-03-08T03:11:32;43.42;;;24.67;;
53519;SDS011;39397;53.204;5.778;2024-03-08T03:13:58;42.00;;;23.73;;
53519;SDS011;39397;53.204;5.778;2024-03-08T03:16:23;42.30;;;25.00;;
53519;SDS011;39397;53.204;5.778;2024-03-08T03:18:49;45.47;;;25.45;;
53519;SDS011;39397;53.204;5.778;2024-03-08T03:21:15;42.85;;;23.98;;
53519;SDS011;39397;53.204;5.778;2024-03-08T03:23:42;42.95;;;25.85;;
53519;SDS011;39397;53.204;5.778;2024-03-08T03:26:08;40.17;;;23.35;;
53519;SDS011;39397;53.204;5.778;2024-03-08T03:28:37;41.95;;;23.90;;
53519;SDS011;39397;53.204;5.778;2024-03-08T03:31:07;43.00;;;24.48;;
53519;SDS011;39397;53.204;5.778;2024-03-08T03:33:35;43.00;;;25.73;;
53519;SDS011;39397;53.204;5.778;2024-03-08T03:36:02;39.33;;;24.55;;
53519;SDS011;39397;53.204;5.778;2024-03-08T03:38:30;44.55;;;23.92;;
53519;SDS011;39397;53.204;5.778;2024-03-08T03:40:56;43.65;;;24.15;;
53519;SDS011;39397;53.204;5.778;2024-03-08T03:43:29;40.90;;;25.88;;
53519;SDS011;39397;53.204;5.778;2024-03-08T03:45:55;44.40;;;24.00;;
53519;SDS011;39397;53.204;5.778;2024-03-08T03:48:20;37.92;;;23.25;;
53519;SDS011;39397;53.204;5.778;2024-03-08T03:50:46;39.95;;;23.40;;
53519;SDS011;39397;53.204;5.778;2024-03-08T03:53:12;38.92;;;22.55;;
53519;SDS011;39397;53.204;5.778;2024-03-08T03:55:38;45.55;;;24.35;;
53519;SDS011;39397;53.204;5.778;2024-03-08T03:58:04;39.33;;;22.67;;
53519;SDS011;39397;53.204;5.778;2024-03-08T04:00:29;40.55;;;22.15;;
53519;SDS011;39397;53.204;5.778;2024-03-08T04:02:55;39.28;;;24.17;;
53519;SDS011;39397;53.204;5.778;2024-03-08T04:05:24;37.10;;;22.30;;
53519;SDS011;39397;53.204;5.778;2024-03-08T04:07:50;38.70;;;21.75;;
53519;SDS011;39397;53.204;5.778;2024-03-08T04:10:16;39.55;;;22.50;;
53519;SDS011;39397;53.204;5.778;2024-03-08T04:12:41;41.60;;;23.60;;
53519;SDS011;39397;53.204;5.778;2024-03-08T04:15:07;38.47;;;22.58;;
53519;SDS011;39397;53.204;5.778;2024-03-08T04:17:35;39.00;;;22.92;;
53519;SDS011;39397;53.204;5.778;2024-03-08T04:20:05;37.13;;;21.95;;
53519;SDS011;39397;53.204;5.778;2024-03-08T04:22:38;40.55;;;23.45;;
53519;SDS011;39397;53.204;5.778;2024-03-08T04:25:04;37.30;;;22.00;;
53519;SDS011;39397;53.204;5.778;2024-03-08T04:27:33;34.97;;;22.33;;
53519;SDS011;39397;53.204;5.778;2024-03-08T04:30:00;37.58;;;23.30;;
53519;SDS011;39397;53.204;5.778;2024-03-08T04:32:26;36.53;;;21.80;;
53519;SDS011;39397;53.204;5.778;2024-03-08T04:34:53;38.38;;;21.38;;
53519;SDS011;39397;53.204;5.778;2024-03-08T04:37:18;40.67;;;21.55;;
53519;SDS011;39397;53.204;5.778;2024-03-08T04:39:47;39.20;;;21.30;;
53519;SDS011;39397;53.204;5.778;2024-03-08T04:42:13;38.38;;;21.40;;
53519;SDS011;39397;53.204;5.778;2024-03-08T04:44:39;33.50;;;20.15;;
53519;SDS011;39397;53.204;5.778;2024-03-08T04:47:05;35.80;;;22.45;;
53519;SDS011;39397;53.204;5.778;2024-03-08T04:49:32;34.70;;;21.10;;
53519;SDS011;39397;53.204;5.778;2024-03-08T04:52:00;38.40;;;21.45;;
53519;SDS011;39397;53.204;5.778;2024-03-08T04:54:27;35.10;;;22.10;;
53519;SDS011;39397;53.204;5.778;2024-03-08T04:56:53;35.28;;;20.65;;
53519;SDS011;39397;53.204;5.778;2024-03-08T04:59:19;37.50;;;21.50;;
53519;SDS011;39397;53.204;5.778;2024-03-08T05:01:45;33.85;;;20.73;;
53519;SDS011;39397;53.204;5.778;2024-03-08T05:04:11;34.78;;;20.55;;
53519;SDS011;39397;53.204;5.778;2024-03-08T05:06:36;35.40;;;21.10;;
53519;SDS011;39397;53.204;5.778;2024-03-08T05:09:02;33.15;;;20.25;;
53519;SDS011;39397;53.204;5.778;2024-03-08T05:11:39;31.00;;;19.35;;
53519;SDS011;39397;53.204;5.778;2024-03-08T05:14:05;34.95;;;20.85;;
53519;SDS011;39397;53.204;5.778;2024-03-08T05:16:31;34.78;;;20.60;;
53519;SDS011;39397;53.204;5.778;2024-03-08T05:18:57;33.47;;;21.20;;
53519;SDS011;39397;53.204;5.778;2024-03-08T05:21:22;33.53;;;19.98;;
53519;SDS011;39397;53.204;5.778;2024-03-08T05:23:48;36.60;;;22.13;;
53519;SDS011;39397;53.204;5.778;2024-03-08T05:26:16;32.33;;;20.27;;
53519;SDS011;39397;53.204;5.778;2024-03-08T05:28:42;32.42;;;19.45;;
53519;SDS011;39397;53.204;5.778;2024-03-08T05:31:08;37.42;;;21.35;;
53519;SDS011;39397;53.204;5.778;2024-03-08T05:33:33;35.55;;;21.40;;
53519;SDS011;39397;53.204;5.778;2024-03-08T05:36:00;28.95;;;19.25;;
53519;SDS011;39397;53.204;5.778;2024-03-08T05:38:27;34.88;;;20.50;;
53519;SDS011;39397;53.204;5.778;2024-03-08T05:40:53;37.30;;;21.70;;
53519;SDS011;39397;53.204;5.778;2024-03-08T05:43:19;36.10;;;22.65;;
53519;SDS011;39397;53.204;5.778;2024-03-08T05:45:46;37.22;;;21.60;;
53519;SDS011;39397;53.204;5.778;2024-03-08T05:48:13;35.10;;;20.85;;
53519;SDS011;39397;53.204;5.778;2024-03-08T05:50:38;36.05;;;19.85;;
53519;SDS011;39397;53.204;5.778;2024-03-08T05:53:04;35.92;;;21.58;;
53519;SDS011;39397;53.204;5.778;2024-03-08T05:55:34;34.97;;;20.20;;
53519;SDS011;39397;53.204;5.778;2024-03-08T05:58:00;40.58;;;24.20;;
53519;SDS011;39397;53.204;5.778;2024-03-08T06:00:26;36.58;;;21.27;;
53519;SDS011;39397;53.204;5.778;2024-03-08T06:02:52;33.95;;;20.60;;
53519;SDS011;39397;53.204;5.778;2024-03-08T06:05:18;33.75;;;20.42;;
53519;SDS011;39397;53.204;5.778;2024-03-08T06:07:44;32.95;;;21.30;;
53519;SDS011;39397;53.204;5.778;2024-03-08T06:10:10;34.53;;;20.75;;
53519;SDS011;39397;53.204;5.778;2024-03-08T06:12:39;34.60;;;21.27;;
53519;SDS011;39397;53.204;5.778;2024-03-08T06:15:09;42.45;;;22.90;;
53519;SDS011;39397;53.204;5.778;2024-03-08T06:17:39;38.78;;;21.35;;
53519;SDS011;39397;53.204;5.778;2024-03-08T06:20:05;37.58;;;21.55;;
53519;SDS011;39397;53.204;5.778;2024-03-08T06:22:38;34.55;;;20.27;;
53519;SDS011;39397;53.204;5.778;2024-03-08T06:25:16;33.15;;;20.17;;
53519;SDS011;39397;53.204;5.778;2024-03-08T06:27:42;32.95;;;19.52;;
53519;SDS011;39397;53.204;5.778;2024-03-08T06:30:08;40.13;;;21.65;;
53519;SDS011;39397;53.204;5.778;2024-03-08T06:32:38;34.83;;;20.80;;
53519;SDS011;39397;53.204;5.778;2024-03-08T06:35:04;35.40;;;21.00;;
53519;SDS011;39397;53.204;5.778;2024-03-08T06:37:34;33.65;;;20.58;;
53519;SDS011;39397;53.204;5.778;2024-03-08T06:40:00;32.58;;;20.30;;
53519;SDS011;39397;53.204;5.778;2024-03-08T06:42:29;36.30;;;20.95;;
53519;SDS011;39397;53.204;5.778;2024-03-08T06:45:00;35.38;;;21.30;;
53519;SDS011;39397;53.204;5.778;2024-03-08T06:47:30;31.83;;;19.27;;
53519;SDS011;39397;53.204;5.778;2024-03-08T06:49:57;33.88;;;20.88;;
53519;SDS011;39397;53.204;5.778;2024-03-08T06:52:22;34.40;;;21.90;;
53519;SDS011;39397;53.204;5.778;2024-03-08T06:54:48;33.55;;;21.23;;
53519;SDS011;39397;53.204;5.778;2024-03-08T06:57:14;34.10;;;19.05;;
53519;SDS011;39397;53.204;5.778;2024-03-08T06:59:41;31.85;;;18.92;;
53519;SDS011;39397;53.204;5.778;2024-03-08T07:02:07;34.78;;;19.38;;
53519;SDS011;39397;53.204;5.778;2024-03-08T07:04:34;36.92;;;20.45;;
53519;SDS011;39397;53.204;5.778;2024-03-08T07:07:03;30.85;;;19.25;;
53519;SDS011;39397;53.204;5.778;2024-03-08T07:09:30;32.47;;;19.60;;
53519;SDS011;39397;53.204;5.778;2024-03-08T07:11:55;30.05;;;18.48;;
53519;SDS011;39397;53.204;5.778;2024-03-08T07:14:21;33.28;;;20.17;;
53519;SDS011;39397;53.204;5.778;2024-03-08T07:16:47;30.73;;;19.60;;
53519;SDS011;39397;53.204;5.778;2024-03-08T07:19:14;29.55;;;19.08;;
53519;SDS011;39397;53.204;5.778;2024-03-08T07:21:40;33.63;;;20.80;;
53519;SDS011;39397;53.204;5.778;2024-03-08T07:24:07;32.50;;;19.80;;
53519;SDS011;39397;53.204;5.778;2024-03-08T07:26:45;31.77;;;19.02;;
53519;SDS011;39397;53.204;5.778;2024-03-08T07:29:15;32.42;;;19.15;;
53519;SDS011;39397;53.204;5.778;2024-03-08T07:31:43;31.45;;;18.30;;
53519;SDS011;39397;53.204;5.778;2024-03-08T07:34:21;31.48;;;18.85;;
53519;SDS011;39397;53.204;5.778;2024-03-08T07:36:47;31.38;;;19.83;;
53519;SDS011;39397;53.204;5.778;2024-03-08T07:39:15;31.83;;;18.58;;
53519;SDS011;39397;53.204;5.778;2024-03-08T07:41:40;25.17;;;16.95;;
53519;SDS011;39397;53.204;5.778;2024-03-08T07:44:06;29.13;;;18.00;;
53519;SDS011;39397;53.204;5.778;2024-03-08T07:46:32;30.65;;;18.55;;
53519;SDS011;39397;53.204;5.778;2024-03-08T07:49:02;26.60;;;18.13;;
53519;SDS011;39397;53.204;5.778;2024-03-08T07:51:28;30.40;;;18.23;;
53519;SDS011;39397;53.204;5.778;2024-03-08T07:53:54;30.40;;;18.23;;
53519;SDS011;39397;53.204;5.778;2024-03-08T07:56:20;29.40;;;17.55;;
53519;SDS011;39397;53.204;5.778;2024-03-08T07:58:47;26.83;;;16.30;;
53519;SDS011;39397;53.204;5.778;2024-03-08T08:01:19;31.52;;;18.10;;
53519;SDS011;39397;53.204;5.778;2024-03-08T08:03:45;29.77;;;18.58;;
53519;SDS011;39397;53.204;5.778;2024-03-08T08:06:14;28.75;;;17.60;;
53519;SDS011;39397;53.204;5.778;2024-03-08T08:08:41;27.40;;;18.38;;
53519;SDS011;39397;53.204;5.778;2024-03-08T08:11:07;27.73;;;17.92;;
53519;SDS011;39397;53.204;5.778;2024-03-08T08:13:34;30.88;;;18.38;;
53519;SDS011;39397;53.204;5.778;2024-03-08T08:16:01;29.98;;;18.38;;
53519;SDS011;39397;53.204;5.778;2024-03-08T08:18:28;27.23;;;18.08;;
53519;SDS011;39397;53.204;5.778;2024-03-08T08:20:54;28.15;;;17.35;;
53519;SDS011;39397;53.204;5.778;2024-03-08T08:23:21;30.23;;;17.58;;
53519;SDS011;39397;53.204;5.778;2024-03-08T08:25:47;26.52;;;18.10;;
53519;SDS011;39397;53.204;5.778;2024-03-08T08:28:16;30.45;;;18.98;;
53519;SDS011;39397;53.204;5.778;2024-03-08T08:30:43;26.55;;;17.42;;
53519;SDS011;39397;53.204;5.778;2024-03-08T08:33:12;30.95;;;19.02;;
53519;SDS011;39397;53.204;5.778;2024-03-08T08:35:38;29.73;;;18.90;;
53519;SDS011;39397;53.204;5.778;2024-03-08T08:38:04;32.03;;;18.83;;
53519;SDS011;39397;53.204;5.778;2024-03-08T08:40:30;27.52;;;17.63;;
53519;SDS011;39397;53.204;5.778;2024-03-08T08:42:57;29.45;;;17.85;;
53519;SDS011;39397;53.204;5.778;2024-03-08T08:45:23;29.02;;;18.50;;
53519;SDS011;39397;53.204;5.778;2024-03-08T08:47:49;28.17;;;17.52;;
53519;SDS011;39397;53.204;5.778;2024-03-08T08:50:15;27.25;;;18.13;;
53519;SDS011;39397;53.204;5.778;2024-03-08T08:52:41;28.58;;;17.95;;
53519;SDS011;39397;53.204;5.778;2024-03-08T08:55:10;28.40;;;18.48;;
53519;SDS011;39397;53.204;5.778;2024-03-08T08:57:42;27.45;;;18.38;;
53519;SDS011;39397;53.204;5.778;2024-03-08T09:00:09;28.08;;;18.00;;
53519;SDS011;39397;53.204;5.778;2024-03-08T09:02:40;28.52;;;18.77;;
53519;SDS011;39397;53.204;5.778;2024-03-08T09:05:06;31.80;;;18.27;;
53519;SDS011;39397;53.204;5.778;2024-03-08T09:07:34;26.17;;;17.85;;
53519;SDS011;39397;53.204;5.778;2024-03-08T09:10:00;27.20;;;18.90;;
53519;SDS011;39397;53.204;5.778;2024-03-08T09:12:26;28.15;;;19.25;;
53519;SDS011;39397;53.204;5.778;2024-03-08T09:14:52;29.85;;;18.23;;
53519;SDS011;39397;53.204;5.778;2024-03-08T09:17:17;29.50;;;19.17;;
53519;SDS011;39397;53.204;5.778;2024-03-08T09:19:48;26.15;;;16.70;;
53519;SDS011;39397;53.204;5.778;2024-03-08T09:22:14;27.15;;;18.42;;
53519;SDS011;39397;53.204;5.778;2024-03-08T09:24:40;27.88;;;19.15;;
53519;SDS011;39397;53.204;5.778;2024-03-08T09:27:06;29.67;;;19.23;;
53519;SDS011;39397;53.204;5.778;2024-03-08T09:29:34;34.35;;;20.48;;
53519;SDS011;39397;53.204;5.778;2024-03-08T09:32:00;25.80;;;17.50;;
53519;SDS011;39397;53.204;5.778;2024-03-08T09:34:26;28.17;;;18.27;;
53519;SDS011;39397;53.204;5.778;2024-03-08T09:36:52;26.35;;;18.08;;
53519;SDS011;39397;53.204;5.778;2024-03-08T09:39:18;28.58;;;18.00;;
53519;SDS011;39397;53.204;5.778;2024-03-08T09:41:46;25.63;;;17.35;;
53519;SDS011;39397;53.204;5.778;2024-03-08T09:44:15;26.27;;;18.83;;
53519;SDS011;39397;53.204;5.778;2024-03-08T09:46:41;30.70;;;17.77;;
53519;SDS011;39397;53.204;5.778;2024-03-08T09:49:07;27.55;;;17.95;;
53519;SDS011;39397;53.204;5.778;2024-03-08T09:51:34;28.15;;;19.15;;
53519;SDS011;39397;53.204;5.778;2024-03-08T09:54:05;24.60;;;16.80;;
53519;SDS011;39397;53.204;5.778;2024-03-08T09:56:34;25.90;;;17.27;;
53519;SDS011;39397;53.204;5.778;2024-03-08T09:59:01;25.23;;;17.00;;
53519;SDS011;39397;53.204;5.778;2024-03-08T10:04:11;24.85;;;17.00;;
53519;SDS011;39397;53.204;5.778;2024-03-08T10:06:39;27.33;;;17.25;;
53519;SDS011;39397;53.204;5.778;2024-03-08T10:09:05;25.83;;;18.45;;
53519;SDS011;39397;53.204;5.778;2024-03-08T10:11:33;25.73;;;18.08;;
53519;SDS011;39397;53.204;5.778;2024-03-08T10:14:00;26.23;;;18.88;;
53519;SDS011;39397;53.204;5.778;2024-03-08T10:16:29;24.95;;;17.80;;
53519;SDS011;39397;53.204;5.778;2024-03-08T10:18:58;26.10;;;18.02;;
53519;SDS011;39397;53.204;5.778;2024-03-08T10:21:25;29.67;;;18.92;;
53519;SDS011;39397;53.204;5.778;2024-03-08T10:23:52;30.35;;;18.98;;
53519;SDS011;39397;53.204;5.778;2024-03-08T10:26:18;27.13;;;17.67;;
53519;SDS011;39397;53.204;5.778;2024-03-08T10:28:47;27.50;;;19.20;;
53519;SDS011;39397;53.204;5.778;2024-03-08T10:31:14;25.60;;;17.95;;
53519;SDS011;39397;53.204;5.778;2024-03-08T10:33:40;30.20;;;19.27;;
53519;SDS011;39397;53.204;5.778;2024-03-08T10:36:07;26.23;;;19.25;;
53519;SDS011;39397;53.204;5.778;2024-03-08T10:38:35;25.90;;;18.33;;
53519;SDS011;39397;53.204;5.778;2024-03-08T10:41:09;26.25;;;17.88;;
53519;SDS011;39397;53.204;5.778;2024-03-08T10:46:30;24.98;;;18.35;;
53519;SDS011;39397;53.204;5.778;2024-03-08T10:49:06;25.73;;;18.10;;
53519;SDS011;39397;53.204;5.778;2024-03-08T10:51:37;24.80;;;17.67;;
53519;SDS011;39397;53.204;5.778;2024-03-08T10:54:06;25.30;;;17.90;;
53519;SDS011;39397;53.204;5.778;2024-03-08T10:56:34;24.73;;;17.90;;
53519;SDS011;39397;53.204;5.778;2024-03-08T10:59:01;26.25;;;18.40;;
53519;SDS011;39397;53.204;5.778;2024-03-08T11:01:29;26.88;;;18.40;;
53519;SDS011;39397;53.204;5.778;2024-03-08T11:03:55;24.73;;;17.27;;
53519;SDS011;39397;53.204;5.778;2024-03-08T11:09:08;25.45;;;18.50;;
53519;SDS011;39397;53.204;5.778;2024-03-08T11:11:52;26.73;;;17.23;;
53519;SDS011;39397;53.204;5.778;2024-03-08T11:14:44;26.08;;;18.73;;
53519;SDS011;39397;53.204;5.778;2024-03-08T11:17:14;26.13;;;19.37;;
53519;SDS011;39397;53.204;5.778;2024-03-08T11:19:52;26.67;;;18.52;;
53519;SDS011;39397;53.204;5.778;2024-03-08T11:22:32;25.92;;;18.17;;
53519;SDS011;39397;53.204;5.778;2024-03-08T11:24:59;25.33;;;18.17;;
53519;SDS011;39397;53.204;5.778;2024-03-08T11:27:30;26.27;;;18.30;;
53519;SDS011;39397;53.204;5.778;2024-03-08T11:30:02;26.13;;;18.27;;
53519;SDS011;39397;53.204;5.778;2024-03-08T11:32:47;27.27;;;18.67;;
53519;SDS011;39397;53.204;5.778;2024-03-08T11:35:20;25.65;;;17.92;;
53519;SDS011;39397;53.204;5.778;2024-03-08T11:37:48;23.67;;;17.98;;
53519;SDS011;39397;53.204;5.778;2024-03-08T11:40:14;23.48;;;18.10;;
53519;SDS011;39397;53.204;5.778;2024-03-08T11:42:44;24.90;;;17.52;;
53519;SDS011;39397;53.204;5.778;2024-03-08T11:45:17;25.27;;;18.55;;
53519;SDS011;39397;53.204;5.778;2024-03-08T11:47:43;24.65;;;17.98;;
53519;SDS011;39397;53.204;5.778;2024-03-08T11:50:12;24.02;;;17.52;;
53519;SDS011;39397;53.204;5.778;2024-03-08T11:52:39;25.92;;;19.27;;
53519;SDS011;39397;53.204;5.778;2024-03-08T11:55:05;25.55;;;17.92;;
53519;SDS011;39397;53.204;5.778;2024-03-08T11:57:31;24.70;;;18.38;;
53519;SDS011;39397;53.204;5.778;2024-03-08T11:59:58;27.95;;;18.75;;
53519;SDS011;39397;53.204;5.778;2024-03-08T12:02:32;26.90;;;19.02;;
53519;SDS011;39397;53.204;5.778;2024-03-08T12:05:00;24.35;;;18.10;;
53519;SDS011;39397;53.204;5.778;2024-03-08T12:07:31;25.27;;;16.80;;
53519;SDS011;39397;53.204;5.778;2024-03-08T12:12:49;26.88;;;17.92;;
53519;SDS011;39397;53.204;5.778;2024-03-08T12:15:16;25.55;;;17.48;;
53519;SDS011;39397;53.204;5.778;2024-03-08T12:17:48;25.23;;;18.30;;
53519;SDS011;39397;53.204;5.778;2024-03-08T12:22:50;23.58;;;17.63;;
53519;SDS011;39397;53.204;5.778;2024-03-08T12:25:18;26.08;;;18.63;;
53519;SDS011;39397;53.204;5.778;2024-03-08T12:27:45;25.25;;;17.80;;
53519;SDS011;39397;53.204;5.778;2024-03-08T12:30:30;24.23;;;17.10;;
53519;SDS011;39397;53.204;5.778;2024-03-08T12:32:59;24.85;;;18.20;;
53519;SDS011;39397;53.204;5.778;2024-03-08T12:35:26;24.58;;;18.05;;
53519;SDS011;39397;53.204;5.778;2024-03-08T12:37:54;22.98;;;17.02;;
53519;SDS011;39397;53.204;5.778;2024-03-08T12:40:27;23.40;;;17.38;;
53519;SDS011;39397;53.204;5.778;2024-03-08T12:42:58;22.48;;;17.15;;
53519;SDS011;39397;53.204;5.778;2024-03-08T12:45:24;22.50;;;17.10;;
53519;SDS011;39397;53.204;5.778;2024-03-08T12:47:50;22.88;;;17.80;;
53519;SDS011;39397;53.204;5.778;2024-03-08T12:50:18;25.77;;;18.33;;
53519;SDS011;39397;53.204;5.778;2024-03-08T12:52:44;25.88;;;18.58;;
53519;SDS011;39397;53.204;5.778;2024-03-08T12:55:10;24.50;;;18.60;;
53519;SDS011;39397;53.204;5.778;2024-03-08T12:57:37;23.88;;;17.77;;
53519;SDS011;39397;53.204;5.778;2024-03-08T13:00:04;22.65;;;16.85;;
53519;SDS011;39397;53.204;5.778;2024-03-08T13:02:30;23.08;;;17.15;;
53519;SDS011;39397;53.204;5.778;2024-03-08T13:04:57;23.90;;;17.08;;
53519;SDS011;39397;53.204;5.778;2024-03-08T13:07:24;23.52;;;18.05;;
53519;SDS011;39397;53.204;5.778;2024-03-08T13:09:51;23.33;;;16.80;;
53519;SDS011;39397;53.204;5.778;2024-03-08T13:12:19;27.10;;;17.60;;
53519;SDS011;39397;53.204;5.778;2024-03-08T13:14:45;22.63;;;18.02;;
53519;SDS011;39397;53.204;5.778;2024-03-08T13:17:12;24.05;;;18.35;;
53519;SDS011;39397;53.204;5.778;2024-03-08T13:19:38;24.33;;;18.13;;
53519;SDS011;39397;53.204;5.778;2024-03-08T13:22:04;25.38;;;18.95;;
53519;SDS011;39397;53.204;5.778;2024-03-08T13:24:30;28.35;;;19.55;;
53519;SDS011;39397;53.204;5.778;2024-03-08T13:26:56;25.17;;;17.48;;
53519;SDS011;39397;53.204;5.778;2024-03-08T13:29:23;25.55;;;19.20;;
53519;SDS011;39397;53.204;5.778;2024-03-08T13:31:49;27.45;;;19.50;;
53519;SDS011;39397;53.204;5.778;2024-03-08T13:34:20;24.10;;;18.63;;
53519;SDS011;39397;53.204;5.778;2024-03-08T13:36:54;24.75;;;19.48;;
53519;SDS011;39397;53.204;5.778;2024-03-08T13:39:25;24.60;;;19.40;;
53519;SDS011;39397;53.204;5.778;2024-03-08T13:41:51;24.70;;;18.77;;
53519;SDS011;39397;53.204;5.778;2024-03-08T13:44:16;26.67;;;18.35;;
53519;SDS011;39397;53.204;5.778;2024-03-08T13:46:42;24.35;;;19.17;;
53519;SDS011;39397;53.204;5.778;2024-03-08T13:49:08;24.77;;;18.20;;
53519;SDS011;39397;53.204;5.778;2024-03-08T13:51:36;25.05;;;19.95;;
53519;SDS011;39397;53.204;5.778;2024-03-08T13:54:01;22.80;;;16.77;;
53519;SDS011;39397;53.204;5.778;2024-03-08T13:56:27;26.48;;;17.55;;
53519;SDS011;39397;53.204;5.778;2024-03-08T13:58:56;22.52;;;18.35;;
53519;SDS011;39397;53.204;5.778;2024-03-08T14:01:22;23.77;;;17.08;;
53519;SDS011;39397;53.204;5.778;2024-03-08T14:03:48;24.95;;;18.67;;
53519;SDS011;39397;53.204;5.778;2024-03-08T14:06:14;22.85;;;17.60;;
53519;SDS011;39397;53.204;5.778;2024-03-08T14:08:40;24.38;;;18.00;;
53519;SDS011;39397;53.204;5.778;2024-03-08T14:11:06;23.25;;;17.60;;
53519;SDS011;39397;53.204;5.778;2024-03-08T14:13:41;24.13;;;18.10;;
53519;SDS011;39397;53.204;5.778;2024-03-08T14:16:09;25.70;;;17.23;;
53519;SDS011;39397;53.204;5.778;2024-03-08T14:18:35;22.83;;;18.00;;
53519;SDS011;39397;53.204;5.778;2024-03-08T14:21:02;22.05;;;18.40;;
53519;SDS011;39397;53.204;5.778;2024-03-08T14:23:29;24.73;;;18.35;;
53519;SDS011;39397;53.204;5.778;2024-03-08T14:25:55;21.45;;;16.67;;
53519;SDS011;39397;53.204;5.778;2024-03-08T14:28:21;22.30;;;17.30;;
53519;SDS011;39397;53.204;5.778;2024-03-08T14:30:48;21.67;;;16.38;;
53519;SDS011;39397;53.204;5.778;2024-03-08T14:33:14;23.20;;;17.40;;
53519;SDS011;39397;53.204;5.778;2024-03-08T14:35:40;20.02;;;15.23;;
53519;SDS011;39397;53.204;5.778;2024-03-08T14:38:07;20.60;;;15.77;;